Time;durP1;ratioP1;P1;durP2;ratioP2;P2;SDS_P1;SDS_P2;PMS_P1;PMS_P2;Temp;Humidity;BMP_temperature;BMP_pressure;BME280_temperature;BME280_humidity;BME280_pressure;Samples;Min_cycle;Max_cycle;Signal;HPM_P1;HPM_P2
2022/09/08 00:00:28;;;;;;;8.70;4.18;;;;;;;18.63;54.63;100027.03;3146048;28;20052;-68
2022/09/08 00:01:59;;;;;;;8.98;4.50;;;;;;;18.59;54.61;100024.72;3146074;28;20136;-67
2022/09/08 00:03:31;;;;;;;13.70;4.85;;;;;;;18.52;54.93;100023.53;3145966;28;20045;-67
2022/09/08 00:05:03;;;;;;;14.25;4.72;;;;;;;18.47;55.11;100021.22;3145792;28;20044;-66
2022/09/08 00:06:35;;;;;;;11.80;4.50;;;;;;;18.45;55.30;100017.00;3145767;28;20084;-66
2022/09/08 00:08:07;;;;;;;11.43;4.85;;;;;;;18.48;55.12;100016.78;3146079;28;20056;-67
2022/09/08 00:09:39;;;;;;;15.57;4.70;;;;;;;18.48;55.09;100025.53;3146145;28;20049;-65
2022/09/08 00:11:15;;;;;;;10.52;4.95;;;;;;;18.48;55.24;100029.97;3145929;28;20048;-65
2022/09/08 00:12:48;;;;;;;8.60;4.82;;;;;;;18.45;55.23;100032.81;3146132;28;20133;-66
2022/09/08 00:14:19;;;;;;;13.60;4.43;;;;;;;18.46;55.15;100027.44;3146046;28;20561;-67
2022/09/08 00:15:52;;;;;;;7.75;4.18;;;;;;;18.47;55.42;100034.41;3145917;28;20051;-67
2022/09/08 00:17:25;;;;;;;12.45;4.47;;;;;;;18.41;55.67;100035.69;3145859;28;20166;-66
2022/09/08 00:18:57;;;;;;;8.15;4.53;;;;;;;18.33;56.00;100021.38;3146205;28;20053;-66
2022/09/08 00:20:28;;;;;;;6.85;4.03;;;;;;;18.28;56.04;100027.03;3145768;28;20044;-66
2022/09/08 00:22:00;;;;;;;11.40;4.00;;;;;;;18.27;56.04;100021.84;3145982;28;20129;-67
2022/09/08 00:23:31;;;;;;;8.25;4.53;;;;;;;18.26;56.04;100017.53;3145920;28;20075;-67
2022/09/08 00:25:03;;;;;;;9.48;3.83;;;;;;;18.25;56.25;100024.63;3145547;28;20482;-66
2022/09/08 00:26:35;;;;;;;9.95;4.30;;;;;;;18.24;56.10;100022.91;3145784;28;20106;-67
2022/09/08 00:28:06;;;;;;;10.00;3.78;;;;;;;18.25;56.32;100027.25;3145543;28;20536;-66
2022/09/08 00:29:38;;;;;;;18.42;4.85;;;;;;;18.21;56.61;100033.69;3145572;28;20048;-66
2022/09/08 00:31:11;;;;;;;14.38;4.40;;;;;;;18.17;56.74;100032.22;3153407;28;20051;-67
2022/09/08 00:32:43;;;;;;;12.98;4.25;;;;;;;18.12;56.90;100034.34;3150860;28;20062;-66
2022/09/08 00:34:15;;;;;;;12.55;4.40;;;;;;;18.11;56.86;100032.69;3145263;28;20083;-66
2022/09/08 00:35:51;;;;;;;10.65;4.28;;;;;;;18.12;56.89;100023.81;3145949;28;20048;-65
2022/09/08 00:37:23;;;;;;;7.93;3.70;;;;;;;18.10;56.72;100023.94;3145804;28;20049;-66
2022/09/08 00:38:55;;;;;;;7.10;3.47;;;;;;;18.17;56.78;100034.88;3145398;28;20110;-65
2022/09/08 00:40:26;;;;;;;9.77;3.90;;;;;;;18.17;56.68;100035.72;3145738;28;20144;-65
2022/09/08 00:41:58;;;;;;;12.80;4.03;;;;;;;18.18;56.82;100037.38;3145586;28;20441;-66
2022/09/08 00:43:34;;;;;;;6.40;3.88;;;;;;;18.18;56.72;100040.00;3145589;28;20048;-65
2022/09/08 00:45:07;;;;;;;9.48;3.88;;;;;;;18.18;56.71;100039.19;3145438;28;20041;-66
2022/09/08 00:46:42;;;;;;;8.98;3.63;;;;;;;18.18;56.73;100045.28;3145377;28;20501;-65
2022/09/08 00:48:19;;;;;;;9.35;3.90;;;;;;;18.16;56.81;100046.34;3145639;28;20052;-65
2022/09/08 00:49:56;;;;;;;9.63;3.50;;;;;;;18.14;56.87;100045.63;3145525;28;20491;-66
2022/09/08 00:51:28;;;;;;;10.35;4.25;;;;;;;18.13;56.77;100051.84;3145470;28;20087;-65
2022/09/08 00:53:03;;;;;;;10.02;4.03;;;;;;;18.12;56.80;100058.06;3145560;28;20063;-66
2022/09/08 00:54:37;;;;;;;5.78;4.05;;;;;;;18.08;56.89;100054.81;3145377;28;20067;-66
2022/09/08 00:56:08;;;;;;;11.45;3.92;;;;;;;18.06;57.08;100053.25;3145421;28;20048;-66
2022/09/08 00:57:41;;;;;;;7.38;4.05;;;;;;;18.05;56.89;100054.22;3133300;28;20061;-65
2022/09/08 00:59:16;;;;;;;6.85;3.60;;;;;;;17.99;56.96;100046.75;3144497;28;20060;-66
2022/09/08 01:00:50;;;;;;;8.27;3.75;;;;;;;18.02;56.86;100057.91;3145432;28;20057;-66
2022/09/08 01:02:25;;;;;;;;;;;;;;;17.95;56.96;100057.50;3145856;28;20048;-66
2022/09/08 01:03:57;;;;;;;7.45;3.42;;;;;;;17.89;57.16;100055.28;3145178;28;20004;-65
2022/09/08 01:05:40;;;;;;;7.65;3.90;;;;;;;17.87;57.15;100054.56;3144979;28;20434;-65
2022/09/08 01:13:07;;;;;;;8.68;4.65;;;;;;;17.80;57.29;100050.69;3133081;28;20048;-65
2022/09/08 01:14:46;;;;;;;14.00;4.28;;;;;;;17.81;57.56;100060.28;3142755;28;20056;-66
2022/09/08 01:16:18;;;;;;;11.15;4.82;;;;;;;17.77;57.52;100064.03;3145119;28;20526;-66
2022/09/08 01:17:54;;;;;;;6.68;4.00;;;;;;;17.74;57.64;100054.56;3145221;28;20102;-66
2022/09/08 01:19:32;;;;;;;12.27;3.72;;;;;;;17.72;57.60;100059.13;3145433;28;20052;-65
2022/09/08 01:21:15;;;;;;;7.68;3.90;;;;;;;17.68;57.68;100054.16;3145348;28;20049;-65
2022/09/08 01:23:32;;;;;;;9.57;4.18;;;;;;;17.66;57.72;100056.06;3145476;28;20115;-66
2022/09/08 01:25:25;;;;;;;8.73;3.50;;;;;;;17.65;57.96;100059.63;3133367;28;20045;-66
2022/09/08 01:27:13;;;;;;;7.05;3.92;;;;;;;17.64;57.95;100058.81;3146772;28;20051;-66
2022/09/08 01:28:49;;;;;;;5.22;3.70;;;;;;;17.65;57.92;100051.75;3145196;28;20051;-65
2022/09/08 01:30:20;;;;;;;12.27;4.93;;;;;;;17.61;58.03;100048.50;3144891;28;20617;-66
2022/09/08 01:31:54;;;;;;;11.60;4.65;;;;;;;17.58;58.13;100045.25;3145077;28;20048;-65
2022/09/08 01:33:24;;;;;;;;;;;;;;;17.45;58.77;100048.72;3145854;28;20437;-66
2022/09/08 01:34:56;;;;;;;7.00;4.38;;;;;;;17.36;58.76;100043.25;3145049;28;19924;-66
2022/09/08 01:36:28;;;;;;;10.38;4.45;;;;;;;17.31;59.05;100051.47;3145149;28;20044;-66
2022/09/08 01:38:00;;;;;;;7.75;4.43;;;;;;;17.28;59.22;100043.78;3145355;28;20193;-66
2022/09/08 01:39:32;;;;;;;7.67;4.53;;;;;;;17.26;58.96;100049.16;3145100;28;20084;-65
2022/09/08 01:41:03;;;;;;;5.45;3.85;;;;;;;17.29;59.04;100037.56;3145039;28;20306;-66
2022/09/08 01:42:36;;;;;;;11.18;4.75;;;;;;;17.32;59.01;100041.78;3146472;28;20186;-65
2022/09/08 01:44:07;;;;;;;13.68;4.40;;;;;;;17.32;59.09;100041.78;3147762;28;20049;-65
2022/09/08 01:45:41;;;;;;;8.50;4.75;;;;;;;17.34;58.91;100039.91;3147710;28;20775;-65
2022/09/08 01:47:12;;;;;;;;;;;;;;;17.31;58.94;100040.94;3148251;28;20048;-67
2022/09/08 01:48:43;;;;;;;10.05;4.45;;;;;;;17.30;58.89;100036.59;3147021;28;19925;-66
2022/09/08 01:50:15;;;;;;;6.40;3.92;;;;;;;17.31;59.13;100033.06;3147654;28;20059;-67
2022/09/08 01:51:47;;;;;;;11.48;4.45;;;;;;;17.33;59.13;100039.03;3147795;28;20049;-67
2022/09/08 01:53:19;;;;;;;7.63;4.15;;;;;;;17.33;59.10;100030.28;3147538;28;20056;-67
2022/09/08 01:54:51;;;;;;;7.90;3.83;;;;;;;17.32;59.23;100039.16;3147677;28;20052;-67
2022/09/08 01:56:23;;;;;;;7.72;4.45;;;;;;;17.34;59.17;100045.16;3147472;28;20044;-67
2022/09/08 01:57:55;;;;;;;5.80;3.95;;;;;;;17.35;59.11;100041.56;3147491;28;20056;-67
2022/09/08 01:59:27;;;;;;;10.68;4.47;;;;;;;17.36;58.82;100038.84;3147903;28;20053;-68
2022/09/08 02:00:59;;;;;;;5.10;3.67;;;;;;;17.38;59.17;100039.56;3147592;28;20729;-68
2022/09/08 02:02:31;;;;;;;16.15;4.95;;;;;;;17.37;59.17;100040.53;3147426;28;20127;-67
2022/09/08 02:04:03;;;;;;;8.27;4.03;;;;;;;17.36;59.00;100037.97;3147658;28;20076;-67
2022/09/08 02:05:37;;;;;;;6.60;4.57;;;;;;;17.34;59.16;100037.25;3147409;28;20048;-68
2022/09/08 02:07:09;;;;;;;8.88;4.50;;;;;;;17.34;58.93;100034.63;3147525;28;20048;-67
2022/09/08 02:08:43;;;;;;;8.43;4.38;;;;;;;17.35;59.21;100031.03;3147368;28;20489;-67
2022/09/08 02:10:14;;;;;;;7.63;4.50;;;;;;;17.36;58.95;100030.94;3147435;28;20084;-67
2022/09/08 02:11:48;;;;;;;8.77;4.45;;;;;;;17.37;58.94;100018.63;3147416;28;20075;-67
2022/09/08 02:13:22;;;;;;;10.25;4.70;;;;;;;17.38;59.02;100015.03;3147662;28;20055;-68
2022/09/08 02:14:53;;;;;;;9.82;5.53;;;;;;;17.37;58.83;100023.88;3147264;28;20056;-68
2022/09/08 02:16:25;;;;;;;7.55;4.80;;;;;;;17.38;59.06;100017.66;3147061;28;20074;-67
2022/09/08 02:17:57;;;;;;;9.18;4.70;;;;;;;17.34;59.23;100019.69;3147411;28;20052;-67
2022/09/08 02:19:29;;;;;;;8.77;4.47;;;;;;;17.29;59.37;100014.72;3147539;28;20052;-67
2022/09/08 02:21:02;;;;;;;11.05;4.60;;;;;;;17.27;59.30;100019.28;3147055;28;20045;-67
2022/09/08 02:22:33;;;;;;;7.80;4.18;;;;;;;17.26;59.42;100022.00;3147275;28;20057;-68
2022/09/08 02:24:06;;;;;;;10.95;4.60;;;;;;;17.17;59.73;100020.00;3150807;28;20041;-67
2022/09/08 02:25:36;;;;;;;7.53;4.47;;;;;;;17.09;60.20;100024.94;3147050;28;20426;-66
2022/09/08 02:27:08;;;;;;;9.15;4.70;;;;;;;17.05;60.27;100026.94;3146747;28;20052;-66
2022/09/08 02:28:41;;;;;;;10.65;5.05;;;;;;;16.99;60.39;100030.84;3146961;28;20080;-66
2022/09/08 02:30:13;;;;;;;7.55;5.20;;;;;;;16.95;60.34;100025.91;3147437;28;20065;-66
2022/09/08 02:31:45;;;;;;;15.05;5.43;;;;;;;16.92;60.48;100024.31;3147350;28;20101;-66
2022/09/08 02:33:16;;;;;;;7.45;4.60;;;;;;;16.95;60.64;100021.47;3147045;28;20060;-65
2022/09/08 02:34:48;;;;;;;6.75;4.82;;;;;;;16.94;60.41;100021.56;3147092;28;20141;-66
2022/09/08 02:36:19;;;;;;;9.32;4.75;;;;;;;16.98;60.38;100012.53;3147281;28;20052;-66
2022/09/08 02:37:51;;;;;;;10.23;4.43;;;;;;;17.00;60.38;100018.50;3147231;28;20045;-66
2022/09/08 02:39:23;;;;;;;9.32;4.60;;;;;;;17.01;60.15;100023.69;3146970;28;20056;-67
2022/09/08 02:40:55;;;;;;;7.03;4.40;;;;;;;17.02;60.02;100009.56;3147114;28;20048;-66
2022/09/08 02:42:27;;;;;;;7.60;4.97;;;;;;;17.04;60.25;100009.50;3147353;28;20430;-66
2022/09/08 02:44:01;;;;;;;10.98;4.60;;;;;;;17.04;60.02;100012.97;3147008;28;20048;-66
2022/09/08 02:45:32;;;;;;;9.65;4.22;;;;;;;17.07;60.25;100011.91;3147142;28;20530;-66
2022/09/08 02:47:04;;;;;;;7.25;4.30;;;;;;;17.06;60.27;100010.19;3146904;28;20045;-66
2022/09/08 02:48:36;;;;;;;7.00;4.32;;;;;;;17.10;60.12;100005.59;3146950;28;20055;-66
2022/09/08 02:50:07;;;;;;;12.63;4.47;;;;;;;17.09;59.81;100010.00;3146902;28;20044;-66
2022/09/08 02:51:39;;;;;;;12.25;5.70;;;;;;;17.11;59.90;100004.63;3146912;28;20044;-66
2022/09/08 02:53:10;;;;;;;9.50;4.93;;;;;;;17.06;59.87;100007.56;3146590;28;20044;-66
2022/09/08 02:54:42;;;;;;;9.50;5.00;;;;;;;17.11;59.90;100015.16;3145953;28;20173;-66
2022/09/08 02:56:14;;;;;;;7.47;4.97;;;;;;;17.08;60.11;100018.00;3146525;28;20048;-66
2022/09/08 02:57:46;;;;;;;10.10;4.85;;;;;;;17.06;60.07;100016.31;3146853;28;20501;-66
2022/09/08 02:59:19;;;;;;;8.93;4.30;;;;;;;17.06;59.97;100016.31;3147100;28;20484;-66
2022/09/08 03:00:51;;;;;;;;;;;;;;;17.02;60.16;100024.53;3147229;28;20063;-66
2022/09/08 03:02:23;;;;;;;8.45;4.53;;;;;;;16.93;60.20;100020.72;3146844;28;20423;-66
2022/09/08 03:03:55;;;;;;;7.32;4.60;;;;;;;16.96;60.40;100022.31;3146959;28;20044;-65
2022/09/08 03:05:26;;;;;;;8.73;4.45;;;;;;;16.95;60.53;100024.13;3146737;28;20158;-65
2022/09/08 03:06:58;;;;;;;7.60;4.70;;;;;;;16.90;60.44;100020.94;3146651;28;20040;-65
2022/09/08 03:08:30;;;;;;;13.98;4.35;;;;;;;16.90;60.62;100028.84;3146541;28;20123;-65
2022/09/08 03:10:02;;;;;;;9.38;4.50;;;;;;;16.90;60.41;100028.84;3146553;28;20048;-66
2022/09/08 03:11:34;;;;;;;8.98;4.80;;;;;;;16.90;60.69;100025.38;3147062;28;20048;-66
2022/09/08 03:13:06;;;;;;;7.65;4.63;;;;;;;16.91;60.49;100027.88;3146732;28;20476;-66
2022/09/08 03:14:39;;;;;;;10.00;5.35;;;;;;;16.90;60.63;100034.09;3146601;28;20052;-66
2022/09/08 03:16:11;;;;;;;7.97;5.35;;;;;;;16.90;60.57;100031.47;3146678;28;20425;-66
2022/09/08 03:17:42;;;;;;;10.60;5.07;;;;;;;16.90;60.52;100028.84;3146945;28;20048;-66
2022/09/08 03:19:14;;;;;;;11.77;6.03;;;;;;;16.89;60.53;100027.16;3148283;28;20595;-66
2022/09/08 03:20:46;;;;;;;18.23;5.72;;;;;;;16.92;60.40;100033.97;3152081;28;20048;-66
2022/09/08 03:22:18;;;;;;;18.70;5.28;;;;;;;16.93;60.60;100038.31;3146708;28;20139;-66
2022/09/08 03:23:50;;;;;;;7.97;4.78;;;;;;;16.92;60.47;100042.72;3145995;28;20076;-66
2022/09/08 03:25:22;;;;;;;10.18;5.13;;;;;;;16.92;60.56;100040.09;3146755;28;20053;-66
2022/09/08 03:26:54;;;;;;;11.07;5.15;;;;;;;16.92;60.59;100033.97;3146366;28;20080;-66
2022/09/08 03:28:26;;;;;;;9.82;5.45;;;;;;;16.92;60.61;100031.34;3146522;28;20106;-65
2022/09/08 03:29:58;;;;;;;12.32;5.88;;;;;;;16.92;60.64;100032.22;3146584;28;20060;-65
2022/09/08 03:31:30;;;;;;;18.85;6.22;;;;;;;16.93;60.35;100036.50;3146613;28;20059;-68
2022/09/08 03:33:02;;;;;;;12.95;4.97;;;;;;;16.93;60.51;100041.78;3146349;28;20514;-66
2022/09/08 03:34:34;;;;;;;10.32;4.72;;;;;;;16.94;60.36;100037.34;3146582;28;20053;-66
2022/09/08 03:36:08;;;;;;;8.70;5.20;;;;;;;16.94;60.35;100030.28;3146335;28;20620;-66
2022/09/08 03:37:40;;;;;;;8.18;5.03;;;;;;;16.94;60.43;100034.72;3146384;28;20040;-66
2022/09/08 03:39:12;;;;;;;9.23;4.65;;;;;;;16.90;60.70;100035.88;3146429;28;20064;-65
2022/09/08 03:40:44;;;;;;;13.25;4.47;;;;;;;16.89;60.43;100031.56;3146553;28;20052;-65
2022/09/08 03:42:17;;;;;;;11.27;4.32;;;;;;;16.85;60.73;100036.19;3146231;28;20059;-65
2022/09/08 03:43:51;;;;;;;6.85;4.60;;;;;;;16.83;60.61;100041.56;3146639;28;20048;-66
2022/09/08 03:45:24;;;;;;;6.63;4.30;;;;;;;16.83;60.74;100046.81;3146441;28;20052;-66
2022/09/08 03:46:56;;;;;;;10.52;5.43;;;;;;;16.81;60.89;100038.19;3145703;28;20044;-66
2022/09/08 03:48:28;;;;;;;13.15;5.53;;;;;;;16.81;60.77;100038.19;3146307;28;20056;-65
2022/09/08 03:50:00;;;;;;;11.50;4.63;;;;;;;16.81;60.60;100032.09;3146157;28;20052;-66
2022/09/08 03:51:32;;;;;;;9.40;5.05;;;;;;;16.80;60.52;100030.38;3146348;28;20051;-66
2022/09/08 03:53:04;;;;;;;12.02;4.15;;;;;;;16.81;60.48;100032.94;3146222;28;20057;-66
2022/09/08 03:54:51;;;;;;;7.53;4.60;;;;;;;16.82;60.57;100028.50;3146279;28;20052;-66
2022/09/08 03:56:22;;;;;;;9.32;4.50;;;;;;;16.85;60.77;100033.56;3146011;28;20060;-66
2022/09/08 03:57:54;;;;;;;13.25;4.60;;;;;;;16.82;60.60;100031.13;3146311;28;20502;-65
2022/09/08 03:59:27;;;;;;;11.68;4.38;;;;;;;16.83;60.69;100036.31;3146408;28;20126;-65
2022/09/08 04:01:01;;;;;;;7.68;4.55;;;;;;;16.84;60.67;100037.13;3146125;28;20052;-65
2022/09/08 04:02:33;;;;;;;9.93;4.38;;;;;;;16.85;60.48;100041.44;3145764;28;20065;-65
2022/09/08 04:04:05;;;;;;;10.95;4.15;;;;;;;16.85;60.33;100038.81;3146034;28;20055;-65
2022/09/08 04:05:38;;;;;;;7.20;4.45;;;;;;;16.85;60.44;100044.06;3145695;28;20060;-66
2022/09/08 04:07:10;;;;;;;13.65;4.47;;;;;;;16.83;60.28;100036.31;3146040;28;20048;-68
2022/09/08 04:08:42;;;;;;;9.10;4.72;;;;;;;16.79;60.37;100037.44;3146077;28;20519;-66
2022/09/08 04:10:13;;;;;;;10.77;4.03;;;;;;;16.82;60.58;100036.38;3146184;28;20051;-66
2022/09/08 04:11:46;;;;;;;8.38;4.70;;;;;;;16.81;60.48;100038.19;3146228;28;20056;-67
2022/09/08 04:13:18;;;;;;;8.68;4.55;;;;;;;16.82;60.41;100044.28;3146259;28;20052;-67
2022/09/08 04:14:51;;;;;;;8.17;4.40;;;;;;;16.81;60.21;100043.44;3146165;28;20468;-67
2022/09/08 04:16:24;;;;;;;10.63;4.68;;;;;;;16.81;60.39;100047.88;3155555;28;20056;-66
2022/09/08 04:17:56;;;;;;;9.88;4.60;;;;;;;16.77;60.61;100047.25;3146811;28;20067;-67
2022/09/08 04:19:28;;;;;;;12.00;4.93;;;;;;;16.75;60.46;100046.47;3145810;28;20051;-67
2022/09/08 04:21:02;;;;;;;11.77;4.78;;;;;;;16.75;60.57;100048.25;3145798;28;20461;-66
2022/09/08 04:22:33;;;;;;;11.35;5.53;;;;;;;16.73;60.45;100042.25;3146167;28;20055;-66
2022/09/08 04:24:05;;;;;;;14.18;5.45;;;;;;;16.74;60.56;100043.91;3145745;28;20040;-66
2022/09/08 04:25:37;;;;;;;9.07;4.95;;;;;;;16.73;60.45;100045.72;3145800;28;20132;-66
2022/09/08 04:27:08;;;;;;;11.68;4.88;;;;;;;16.74;60.57;100043.91;3145719;28;20135;-65
2022/09/08 04:28:40;;;;;;;17.63;5.80;;;;;;;16.72;60.66;100048.44;3145913;28;20521;-64
2022/09/08 04:30:14;;;;;;;11.63;5.18;;;;;;;16.72;60.83;100051.09;3145746;28;20048;-64
2022/09/08 04:31:47;;;;;;;15.02;5.55;;;;;;;16.73;60.79;100047.50;3145955;28;20048;-65
2022/09/08 04:33:19;;;;;;;;;;;;;;;16.70;60.51;100047.69;3146123;28;20080;-65
2022/09/08 04:34:51;;;;;;;22.15;5.82;;;;;;;16.71;60.58;100049.38;3145637;28;20023;-65
2022/09/08 04:36:24;;;;;;;14.35;6.03;;;;;;;16.71;60.54;100052.88;3145584;28;20437;-66
2022/09/08 04:37:55;;;;;;;15.45;5.22;;;;;;;16.73;60.54;100050.13;3145739;28;20041;-66
2022/09/08 04:39:27;;;;;;;13.75;5.60;;;;;;;16.75;60.64;100056.97;3145667;28;20056;-66
2022/09/08 04:41:02;;;;;;;9.82;5.05;;;;;;;16.77;60.65;100056.88;3145241;28;20142;-65
2022/09/08 04:42:35;;;;;;;10.05;5.13;;;;;;;16.79;60.53;100055.84;3145048;28;20040;-67
2022/09/08 04:44:06;;;;;;;11.10;4.95;;;;;;;16.76;60.38;100052.59;3145034;28;20054;-66
2022/09/08 04:45:38;;;;;;;9.63;5.50;;;;;;;16.80;60.49;100060.19;3145535;28;20052;-65
2022/09/08 04:47:12;;;;;;;10.98;4.78;;;;;;;16.82;60.55;100066.16;3144901;28;20048;-66
2022/09/08 04:48:45;;;;;;;9.73;4.65;;;;;;;16.85;60.38;100065.13;3144968;28;20080;-65
2022/09/08 04:50:17;;;;;;;10.38;5.00;;;;;;;16.85;60.47;100064.28;3145189;28;20074;-66
2022/09/08 04:51:52;;;;;;;11.25;4.97;;;;;;;16.80;60.53;100061.94;3145405;28;20101;-65
2022/09/08 04:53:23;;;;;;;8.40;4.82;;;;;;;16.89;60.31;100071.88;3145471;28;20435;-65
2022/09/08 04:54:55;;;;;;;10.25;5.57;;;;;;;16.91;60.46;100077.03;3144985;28;20059;-65
2022/09/08 04:56:28;;;;;;;13.10;4.88;;;;;;;16.89;60.42;100081.53;3142768;28;20348;-66
2022/09/08 04:58:00;;;;;;;11.40;4.95;;;;;;;16.90;60.38;100076.19;3145149;28;20578;-66
2022/09/08 04:59:32;;;;;;;8.63;4.53;;;;;;;16.90;60.38;100083.25;3145041;28;20109;-68
2022/09/08 05:01:03;;;;;;;11.48;5.47;;;;;;;16.91;60.66;100079.66;3140383;28;20417;-66
2022/09/08 05:02:37;;;;;;;12.30;5.45;;;;;;;16.91;60.57;100082.28;3139688;28;20044;-65
2022/09/08 05:04:10;;;;;;;19.20;5.57;;;;;;;16.92;60.38;100082.19;3140220;28;20076;-66
2022/09/08 05:05:41;;;;;;;;;;;;;;;16.91;60.10;100085.75;3139696;28;20512;-66
2022/09/08 05:07:13;;;;;;;10.90;4.50;;;;;;;16.92;60.34;100079.56;3140027;28;19924;-69
2022/09/08 05:08:48;;;;;;;18.10;6.53;;;;;;;16.94;60.47;100084.72;3140114;28;20262;-67
2022/09/08 05:10:20;;;;;;;15.07;4.60;;;;;;;16.97;60.48;100080.06;3139714;28;20370;-68
2022/09/08 05:11:54;;;;;;;36.53;20.85;;;;;;;17.00;60.47;100084.28;3142394;28;20048;-67
2022/09/08 05:13:25;;;;;;;18.60;8.50;;;;;;;17.04;60.17;100084.00;3139893;28;20052;-67
2022/09/08 05:14:57;;;;;;;12.65;6.78;;;;;;;17.08;60.24;100086.41;3139861;28;20127;-64
2022/09/08 05:16:30;;;;;;;9.80;5.28;;;;;;;17.11;60.05;100078.31;3139339;28;20135;-63
2022/09/08 05:18:04;;;;;;;9.38;5.05;;;;;;;17.14;60.14;100073.69;3139515;28;20048;-64
2022/09/08 05:19:36;;;;;;;12.40;4.97;;;;;;;17.19;59.91;100076.00;3139695;28;20055;-62
2022/09/08 05:21:10;;;;;;;16.92;4.40;;;;;;;17.22;59.98;100070.53;3139847;28;20114;-63
2022/09/08 05:22:42;;;;;;;7.25;3.75;;;;;;;17.24;59.77;100077.38;3139919;28;20051;-63
2022/09/08 05:24:14;;;;;;;12.23;4.70;;;;;;;17.26;59.85;100061.47;3139606;28;20064;-64
2022/09/08 05:25:47;;;;;;;9.27;4.60;;;;;;;17.25;59.80;100072.97;3139704;28;20135;-64
2022/09/08 05:27:19;;;;;;;14.13;4.93;;;;;;;17.25;59.89;100072.97;3139837;28;20048;-64
2022/09/08 05:28:52;;;;;;;8.55;4.53;;;;;;;17.27;59.88;100058.75;3139370;28;20621;-64
2022/09/08 05:30:24;;;;;;;9.10;4.40;;;;;;;17.32;59.75;100060.22;3140188;28;20138;-64
2022/09/08 05:31:56;;;;;;;8.60;4.50;;;;;;;17.37;59.59;100068.63;3139917;28;20318;-60
2022/09/08 05:33:31;;;;;;;7.32;3.88;;;;;;;17.37;59.48;100060.75;3139797;28;20140;-61
2022/09/08 05:35:03;;;;;;;8.88;4.25;;;;;;;17.46;59.52;100071.47;3139835;28;20050;-61
2022/09/08 05:36:36;;;;;;;8.77;4.70;;;;;;;17.52;59.26;100071.03;3139828;28;20139;-62
2022/09/08 05:38:08;;;;;;;8.65;4.55;;;;;;;17.60;59.20;100078.41;3139428;28;20129;-62
2022/09/08 05:39:40;;;;;;;8.98;3.67;;;;;;;17.68;59.11;100077.84;3137202;28;20052;-62
2022/09/08 05:41:13;;;;;;;10.10;3.65;;;;;;;17.78;58.91;100086.84;3139502;28;20064;-65
2022/09/08 05:42:45;;;;;;;14.67;4.63;;;;;;;17.87;58.81;100080.94;3139877;28;20594;-67
2022/09/08 05:44:17;;;;;;;14.55;7.25;;;;;;;17.95;58.45;100078.59;3139798;28;20048;-65
2022/09/08 05:45:50;;;;;;;19.23;8.10;;;;;;;18.05;58.17;100080.56;3139854;28;20143;-68
2022/09/08 05:47:22;;;;;;;8.93;3.88;;;;;;;18.11;57.73;100088.03;3139265;28;20063;-60
2022/09/08 05:48:57;;;;;;;7.75;3.60;;;;;;;18.19;57.34;100088.31;3139212;28;20056;-62
2022/09/08 05:50:34;;;;;;;13.00;4.53;;;;;;;18.27;57.21;100083.31;3139775;28;20084;-62
2022/09/08 05:52:06;;;;;;;12.13;3.90;;;;;;;18.34;56.94;100071.38;3139709;28;20122;-64
2022/09/08 05:53:37;;;;;;;16.80;3.63;;;;;;;18.41;56.80;100069.13;3139728;28;20513;-62
2022/09/08 05:55:10;;;;;;;7.40;4.00;;;;;;;18.51;56.70;100075.41;3139810;28;20054;-62
2022/09/08 05:56:42;;;;;;;7.45;3.80;;;;;;;18.58;56.42;100071.38;3139550;28;20053;-62
2022/09/08 05:58:13;;;;;;;13.57;3.63;;;;;;;18.68;56.15;100066.25;3140114;28;20048;-63
2022/09/08 05:59:45;;;;;;;8.93;3.97;;;;;;;18.77;55.80;100070.88;3139759;28;20526;-65
2022/09/08 06:01:17;;;;;;;6.55;3.60;;;;;;;18.87;55.64;100076.28;3138669;28;20102;-68
2022/09/08 06:02:50;;;;;;;9.05;4.03;;;;;;;18.97;55.47;100071.16;3139619;28;20056;-68
2022/09/08 06:04:24;;;;;;;8.80;3.17;;;;;;;19.06;55.16;100063.38;3139501;28;20083;-66
2022/09/08 06:05:56;;;;;;;5.80;3.22;;;;;;;19.07;55.06;100051.03;3139710;28;20056;-66
2022/09/08 06:07:27;;;;;;;9.65;4.50;;;;;;;19.28;54.73;100080.22;3139504;28;20557;-68
2022/09/08 06:09:00;;;;;;;10.40;3.55;;;;;;;19.35;54.61;100068.22;3140628;28;20052;-63
2022/09/08 06:10:35;;;;;;;6.43;3.53;;;;;;;19.46;54.14;100073.53;3139716;28;20052;-63
2022/09/08 06:12:07;;;;;;;11.60;3.40;;;;;;;19.56;54.09;100068.34;3137749;28;20050;-63
2022/09/08 06:13:40;;;;;;;9.98;3.58;;;;;;;19.65;53.74;100072.94;3139363;28;20561;-62
2022/09/08 06:15:12;;;;;;;7.90;3.40;;;;;;;19.75;53.62;100067.78;3139698;28;20052;-62
2022/09/08 06:16:45;;;;;;;7.00;3.77;;;;;;;19.86;53.35;100069.56;3139662;28;20064;-64
2022/09/08 06:18:16;;;;;;;6.72;3.10;;;;;;;19.94;52.77;100059.22;3139395;28;20318;-64
2022/09/08 06:19:49;;;;;;;18.13;4.20;;;;;;;20.04;52.57;100062.81;3139351;28;20063;-65
2022/09/08 06:21:23;;;;;;;;;;;;;;;20.13;52.50;100063.88;3126632;28;20680;-68
2022/09/08 06:22:55;;;;;;;8.07;3.67;;;;;;;20.22;52.43;100071.06;3135652;28;20290;-65
2022/09/08 06:24:27;;;;;;;17.02;11.32;;;;;;;20.33;52.41;100062.25;3138771;28;20052;-65
2022/09/08 06:25:59;;;;;;;11.27;6.35;;;;;;;20.40;51.80;100064.25;3138662;28;20050;-67
2022/09/08 06:27:43;;;;;;;9.82;5.43;;;;;;;20.46;51.53;100069.03;3139268;28;20044;-66
2022/09/08 06:29:19;;;;;;;7.13;4.10;;;;;;;20.53;51.28;100071.22;3141398;28;20091;-68
2022/09/08 06:30:53;;;;;;;11.45;3.83;;;;;;;20.57;51.11;100070.00;3141960;28;20118;-67
2022/09/08 06:32:28;;;;;;;8.20;3.90;;;;;;;20.64;50.88;100072.00;3141862;28;20092;-67
2022/09/08 06:34:05;;;;;;;13.43;4.20;;;;;;;20.72;50.84;100070.53;3141880;28;20061;-67
2022/09/08 06:35:48;;;;;;;11.75;4.32;;;;;;;20.81;50.55;100067.13;3141131;28;20490;-68
2022/09/08 06:37:30;;;;;;;6.03;3.67;;;;;;;20.91;50.11;100070.66;3141410;28;20121;-68
2022/09/08 06:39:08;;;;;;;7.90;3.50;;;;;;;21.01;50.25;100068.94;3141382;28;20114;-68
2022/09/08 06:40:43;;;;;;;10.88;4.20;;;;;;;21.09;49.69;100070.94;3135105;28;20087;-66
2022/09/08 06:42:20;;;;;;;20.05;11.65;;;;;;;21.18;49.22;100074.59;3140781;28;20585;-66
2022/09/08 06:43:57;;;;;;;20.20;4.55;;;;;;;21.31;49.12;100075.25;3141853;28;20864;-66
2022/09/08 06:45:34;;;;;;;14.52;6.40;;;;;;;21.41;48.67;100064.72;3137651;28;20076;-64
2022/09/08 06:47:14;;;;;;;7.70;3.38;;;;;;;21.54;48.25;100063.53;3141204;28;20040;-67
2022/09/08 06:48:46;;;;;;;11.07;4.25;;;;;;;21.65;48.23;100062.63;3140834;28;20504;-64
2022/09/08 06:50:18;;;;;;;13.23;4.20;;;;;;;21.76;47.62;100061.66;3140482;28;20515;-62
2022/09/08 06:51:55;;;;;;;9.40;3.60;;;;;;;21.84;47.22;100061.81;3141204;28;20058;-63
2022/09/08 06:53:34;;;;;;;9.00;4.22;;;;;;;21.91;46.86;100068.25;3140989;28;20082;-63
2022/09/08 06:55:19;;;;;;;6.07;3.65;;;;;;;22.00;46.43;100067.44;3140694;28;20136;-63
2022/09/08 06:57:03;;;;;;;10.18;3.97;;;;;;;22.09;46.23;100067.59;3136956;28;20049;-64
2022/09/08 06:58:36;;;;;;;10.77;4.00;;;;;;;22.16;46.23;100069.56;3141138;28;20059;-67
2022/09/08 07:00:15;;;;;;;8.65;3.78;;;;;;;22.22;46.10;100070.88;3140637;28;20056;-65
2022/09/08 07:01:58;;;;;;;9.68;3.60;;;;;;;22.30;46.15;100068.34;3141455;28;20125;-63
2022/09/08 07:03:49;;;;;;;14.02;4.22;;;;;;;22.47;45.73;100072.16;3141154;28;20056;-65
2022/09/08 07:05:46;;;;;;;9.95;4.30;;;;;;;22.61;45.70;100071.72;3140939;28;20052;-64
2022/09/08 07:07:29;;;;;;;10.95;3.85;;;;;;;22.65;45.25;100056.34;3141108;28;20048;-63
2022/09/08 07:09:10;;;;;;;9.02;4.18;;;;;;;22.87;45.57;100065.84;3140842;28;20060;-63
2022/09/08 07:10:48;;;;;;;8.55;3.67;;;;;;;23.07;45.19;100077.28;3140979;28;20052;-63
2022/09/08 07:12:32;;;;;;;7.65;3.40;;;;;;;23.22;44.47;100078.53;3140794;28;20118;-65
2022/09/08 07:14:21;;;;;;;7.82;3.97;;;;;;;23.35;44.07;100080.88;3140908;28;20489;-63
2022/09/08 07:16:04;;;;;;;8.85;3.97;;;;;;;23.50;43.92;100079.41;3140869;28;20813;-64
2022/09/08 07:17:41;;;;;;;10.03;4.33;;;;;;;23.53;43.12;100078.28;3141301;28;20083;-61
2022/09/08 07:19:20;;;;;;;11.20;4.03;;;;;;;23.61;43.29;100071.25;3141579;28;20134;-61
2022/09/08 07:21:02;;;;;;;7.28;3.60;;;;;;;23.72;43.23;100067.63;3135744;28;20053;-59